createdAt,value
2019-04-04T09:28:24.298Z,76.86
2019-04-04T09:29:25.599Z,74.93
2019-04-04T09:30:25.884Z,75.09
2019-04-04T09:31:26.064Z,76.70
2019-04-04T09:32:27.217Z,74.93
2019-04-04T09:33:26.332Z,71.70
2019-04-04T09:34:26.505Z,75.73
2019-04-04T09:35:26.699Z,77.18
2019-04-04T09:36:26.884Z,74.77
2019-04-04T09:37:27.074Z,71.38
2019-04-04T09:38:29.128Z,72.83
2019-04-04T09:39:28.450Z,74.60
2019-04-04T09:40:28.005Z,81.69
2019-04-04T09:41:27.795Z,77.67
2019-04-04T09:42:27.973Z,89.27
2019-04-04T09:43:28.177Z,77.34
2019-04-04T09:44:28.336Z,75.89
2019-04-04T09:45:28.509Z,78.47
2019-04-04T09:46:28.678Z,72.99
2019-04-04T09:47:28.850Z,74.77
2019-04-04T09:48:29.077Z,74.77
2019-04-04T09:49:29.246Z,73.96
2019-04-04T09:50:29.399Z,78.15
2019-04-04T09:51:29.531Z,75.25
2019-04-04T09:52:29.709Z,75.89
2019-04-04T09:53:29.905Z,75.41
2019-04-04T09:54:30.084Z,71.38
2019-04-04T09:55:30.234Z,68.64
2019-04-04T09:56:30.378Z,76.86
2019-04-04T09:57:30.539Z,84.27
2019-04-04T09:58:30.714Z,72.35
2019-04-04T09:59:30.871Z,76.05
2019-04-04T10:00:31.032Z,75.89
2019-04-04T10:01:31.172Z,86.21
2019-04-04T10:02:31.309Z,85.24
2019-04-04T10:03:31.429Z,86.37
2019-04-04T10:04:31.586Z,85.56
2019-04-04T10:05:31.742Z,88.14
2019-04-04T10:06:31.894Z,84.59
2019-04-04T10:07:32.026Z,73.80
2019-04-04T10:08:32.272Z,68.64
2019-04-04T10:09:32.433Z,78.79
2019-04-04T10:10:32.578Z,79.28
2019-04-04T10:11:32.746Z,64.13
2019-04-04T10:12:32.889Z,76.70
2019-04-04T10:13:33.035Z,72.51
2019-04-04T10:14:33.187Z,77.34
2019-04-04T10:15:33.327Z,75.41
2019-04-04T10:16:33.464Z,77.50
2019-04-04T10:17:33.639Z,63.33
2019-04-04T10:18:33.780Z,68.80
2019-04-04T10:19:33.939Z,73.96
2019-04-04T10:20:34.113Z,75.57
2019-04-04T10:21:34.296Z,68.32
2019-04-04T10:22:34.454Z,72.51
2019-04-04T10:23:34.611Z,74.93
2019-04-04T10:24:34.750Z,79.76
2019-04-04T10:25:34.914Z,77.99
2019-04-04T10:26:35.063Z,62.84
2019-04-04T10:27:35.215Z,74.93
2019-04-04T10:28:35.395Z,77.18
2019-04-04T10:29:35.549Z,76.38
2019-04-04T10:30:35.741Z,75.09
2019-04-04T10:31:35.923Z,75.41
2019-04-04T10:32:36.087Z,76.38
2019-04-04T10:33:36.247Z,72.83
2019-04-04T10:34:36.407Z,64.29
2019-04-04T10:35:36.553Z,67.03
2019-04-04T10:36:36.736Z,61.87
2019-04-04T10:37:36.884Z,73.96
2019-04-04T10:38:37.052Z,76.05
2019-04-04T10:39:37.205Z,69.93
2019-04-04T10:40:37.362Z,71.87
2019-04-04T10:41:37.529Z,70.09
2019-04-04T10:42:38.018Z,74.12
2019-04-04T10:43:37.890Z,82.50
2019-04-04T10:44:38.044Z,80.73
2019-04-04T10:45:38.235Z,72.83
2019-04-04T10:46:38.393Z,70.58
2019-04-04T10:47:38.555Z,76.22
2019-04-04T10:48:38.717Z,72.83
2019-04-04T10:49:38.862Z,71.70
2019-04-04T10:50:39.050Z,75.25
2019-04-04T10:51:39.246Z,73.80
2019-04-04T10:52:39.523Z,73.48
2019-04-04T10:53:39.576Z,72.99
2019-04-04T10:54:39.740Z,71.38
2019-04-04T10:55:39.896Z,72.35
2019-04-04T10:56:40.080Z,71.38
2019-04-04T10:57:40.259Z,73.96
2019-04-04T10:58:40.450Z,75.73
2019-04-04T10:59:40.647Z,76.38
2019-04-04T11:00:40.849Z,75.89
2019-04-04T11:01:41.060Z,90.23
2019-04-04T11:02:41.241Z,74.93
2019-04-04T11:03:41.425Z,74.93
2019-04-04T11:04:41.615Z,75.41
2019-04-04T11:05:41.782Z,71.54
2019-04-04T11:06:41.972Z,74.28
2019-04-04T11:07:42.162Z,76.38
2019-04-04T11:08:42.324Z,70.90
2019-04-04T11:09:44.353Z,75.73
2019-04-04T11:10:42.638Z,74.28
2019-04-04T11:11:42.782Z,72.35
2019-04-04T11:12:42.983Z,68.48
2019-04-04T11:13:43.152Z,73.48
2019-04-04T11:14:43.333Z,77.34
2019-04-04T11:15:43.541Z,83.14
2019-04-04T11:16:43.729Z,76.22
2019-04-04T11:17:43.954Z,61.71
2019-04-04T11:18:44.167Z,72.67
2019-04-04T11:19:44.365Z,72.51
2019-04-04T11:20:44.546Z,73.48
2019-04-04T11:21:44.732Z,73.48
2019-04-04T11:22:44.897Z,75.41
2019-04-04T11:23:45.045Z,75.09
2019-04-04T11:24:45.202Z,57.52
2019-04-04T11:25:45.373Z,64.78
2019-04-04T11:26:45.522Z,72.35
2019-04-04T11:27:45.635Z,73.15
2019-04-04T11:28:45.845Z,58.33
2019-04-04T11:29:46.063Z,73.32
2019-04-04T11:30:46.226Z,75.73
2019-04-04T11:31:46.409Z,88.62
2019-04-04T11:32:48.791Z,91.52
2019-04-04T11:33:46.737Z,74.60
2019-04-04T11:34:53.088Z,79.28
2019-04-04T11:35:49.043Z,73.80
2019-04-04T11:36:47.253Z,83.95
2019-04-04T11:37:47.403Z,79.28
2019-04-04T11:38:47.596Z,72.83
2019-04-04T11:39:54.566Z,71.87
2019-04-04T11:40:49.968Z,63.49
2019-04-04T11:41:48.176Z,71.70
2019-04-04T11:42:48.364Z,68.64
2019-04-04T11:43:48.570Z,82.66
2019-04-04T11:44:48.700Z,79.12
2019-04-04T11:45:48.859Z,80.89
2019-04-04T11:46:49.004Z,82.98
2019-04-04T11:47:49.185Z,71.70
2019-04-04T11:48:49.370Z,71.22
2019-04-04T11:49:49.498Z,63.00
2019-04-04T11:50:49.642Z,61.87
2019-04-04T11:51:49.775Z,71.54
2019-04-04T11:52:49.972Z,70.42
2019-04-04T11:53:50.122Z,73.64
2019-04-04T11:54:50.264Z,73.32
2019-04-04T11:55:50.479Z,77.34
2019-04-04T11:56:50.642Z,72.35
2019-04-04T11:57:50.833Z,70.90
2019-04-04T11:58:51.049Z,75.41
2019-04-04T11:59:51.224Z,76.38
2019-04-04T12:00:51.402Z,79.92
2019-04-04T12:01:51.610Z,78.63
2019-04-04T12:02:51.777Z,76.22
2019-04-04T12:03:52.948Z,74.77
2019-04-04T12:04:52.119Z,76.05
2019-04-04T12:05:52.292Z,87.98
2019-04-04T12:06:52.507Z,75.73
2019-04-04T12:07:52.691Z,70.42
2019-04-04T12:08:52.871Z,73.96
2019-04-04T12:09:53.075Z,77.67
2019-04-04T12:10:53.264Z,77.34
2019-04-04T12:11:53.469Z,70.74
2019-04-04T12:12:53.657Z,77.02
2019-04-04T12:13:53.841Z,77.02
2019-04-04T12:14:54.029Z,81.05
2019-04-04T12:15:54.227Z,77.99
2019-04-04T12:16:54.395Z,78.31
2019-04-04T12:17:54.542Z,76.86
2019-04-04T12:18:54.724Z,76.54
2019-04-04T12:19:54.885Z,83.31
2019-04-04T12:20:55.066Z,75.41
2019-04-04T12:21:55.213Z,73.96
2019-04-04T12:22:55.355Z,73.80
2019-04-04T12:23:55.546Z,78.31
2019-04-04T12:24:55.705Z,74.77
2019-04-04T12:25:55.891Z,75.73
2019-04-04T12:26:56.071Z,75.73
2019-04-04T12:27:56.239Z,72.03
2019-04-04T12:28:56.416Z,77.34
2019-04-04T12:29:56.590Z,78.63
2019-04-04T12:30:56.779Z,78.15
2019-04-04T12:31:56.975Z,78.63
2019-04-04T12:32:57.193Z,71.22
2019-04-04T12:33:57.373Z,70.90
2019-04-04T12:34:57.554Z,74.60
2019-04-04T12:35:57.767Z,65.10
2019-04-04T12:36:57.936Z,75.25
2019-04-04T12:37:58.163Z,71.06
2019-04-04T12:38:58.361Z,75.57
2019-04-04T12:39:58.553Z,76.05
2019-04-04T12:40:58.740Z,85.72
2019-04-04T12:41:58.975Z,72.35
2019-04-04T12:42:59.157Z,63.97
2019-04-04T12:43:59.388Z,73.48
2019-04-04T12:44:59.583Z,73.96
2019-04-04T12:45:59.778Z,74.93
2019-04-04T12:46:59.969Z,73.96
2019-04-04T12:48:00.176Z,71.87
2019-04-04T12:49:00.430Z,76.38
2019-04-04T12:50:00.490Z,80.89
2019-04-04T12:51:00.707Z,65.26
2019-04-04T12:52:00.896Z,70.09
2019-04-04T12:53:01.083Z,71.54
2019-04-04T12:54:01.276Z,78.47
2019-04-04T12:55:01.447Z,67.03
2019-04-04T12:56:01.628Z,64.13
2019-04-04T12:57:01.776Z,72.35
2019-04-04T12:58:01.936Z,70.58
2019-04-04T12:59:02.122Z,83.63
2019-04-04T13:00:02.295Z,72.99
2019-04-04T13:01:02.451Z,72.03
2019-04-04T13:02:02.626Z,77.02
2019-04-04T13:03:02.789Z,77.02
2019-04-04T13:04:02.959Z,72.19
2019-04-04T13:05:03.109Z,69.61
2019-04-04T13:06:03.308Z,76.22
2019-04-04T13:07:03.475Z,80.41
2019-04-04T13:08:03.646Z,76.86
2019-04-04T13:09:03.787Z,74.93
2019-04-04T13:10:11.512Z,76.86
2019-04-04T13:11:06.115Z,82.66
2019-04-04T13:12:04.330Z,83.14
2019-04-04T13:13:04.510Z,76.86
2019-04-04T13:14:04.665Z,67.51
2019-04-04T13:15:04.843Z,70.74
2019-04-04T13:16:04.989Z,72.83
2019-04-04T13:17:05.109Z,76.05
2019-04-04T13:18:05.264Z,81.86
2019-04-04T13:19:05.434Z,73.80
2019-04-04T13:20:05.625Z,96.52
2019-04-04T13:21:05.757Z,77.50
2019-04-04T13:22:05.927Z,83.14
2019-04-04T13:23:06.147Z,86.53
2019-04-04T13:24:06.331Z,84.27
2019-04-04T13:25:06.570Z,81.21
2019-04-04T13:26:06.763Z,80.73
2019-04-04T13:27:06.949Z,78.47
2019-04-04T13:28:07.152Z,82.66
2019-04-04T13:29:07.315Z,83.47
2019-04-04T13:30:07.528Z,80.24
2019-04-04T13:31:07.722Z,79.28
2019-04-04T13:32:07.905Z,74.60
2019-04-04T13:33:08.090Z,69.77
2019-04-04T13:34:08.274Z,72.51
2019-04-04T13:35:08.445Z,71.54
2019-04-04T13:36:08.648Z,72.19
2019-04-04T13:37:08.820Z,76.22
2019-04-04T13:38:09.011Z,78.31
2019-04-04T13:39:09.171Z,76.54
2019-04-04T13:40:09.323Z,76.86
2019-04-04T13:41:20.987Z,76.05
2019-04-04T13:42:11.722Z,75.57
2019-04-04T13:43:09.883Z,74.28
2019-04-04T13:44:10.076Z,76.86
2019-04-04T13:45:10.266Z,72.83
2019-04-04T13:46:11.114Z,71.06
2019-04-04T13:47:11.581Z,81.86
2019-04-04T13:48:12.685Z,80.08
2019-04-04T13:49:11.875Z,80.57
2019-04-04T13:50:12.632Z,74.60
2019-04-04T13:51:12.256Z,59.94
2019-04-04T13:52:11.728Z,62.36
2019-04-04T13:53:12.680Z,76.70
2019-04-04T13:54:11.822Z,73.80
2019-04-04T13:55:11.988Z,74.93
2019-04-04T13:56:12.168Z,76.05
2019-04-04T13:57:12.323Z,75.25
2019-04-04T13:58:12.531Z,77.99
2019-04-04T13:59:12.696Z,75.09
2019-04-04T14:00:12.876Z,74.77
2019-04-04T14:01:13.053Z,77.83
2019-04-04T14:02:13.214Z,76.54
2019-04-04T14:03:13.392Z,75.41
2019-04-04T14:04:13.559Z,74.44
2019-04-04T14:05:14.503Z,79.28
2019-04-04T14:06:14.952Z,80.89
2019-04-04T14:07:14.129Z,85.72
2019-04-04T14:08:14.576Z,81.53
2019-04-04T14:09:15.528Z,80.08
2019-04-04T14:10:17.099Z,81.37
2019-04-04T14:11:15.803Z,82.34
2019-04-04T14:12:15.053Z,70.58
2019-04-04T14:13:15.221Z,80.73
2019-04-04T14:14:15.359Z,79.28
2019-04-04T14:15:15.525Z,76.22
2019-04-04T14:16:15.661Z,76.54
2019-04-04T14:17:15.810Z,75.09
2019-04-04T14:18:15.970Z,78.96
2019-04-04T14:19:16.181Z,80.57
2019-04-04T14:20:16.357Z,73.32
2019-04-04T14:21:16.521Z,74.28
2019-04-04T14:22:16.647Z,84.11
2019-04-04T14:23:16.804Z,77.83
2019-04-04T14:24:16.960Z,72.99
2019-04-04T14:25:17.151Z,74.60
2019-04-04T14:26:17.290Z,76.70
2019-04-04T14:27:17.434Z,76.38
2019-04-04T14:28:17.582Z,73.64
2019-04-04T14:29:27.404Z,76.22
2019-04-04T14:30:19.924Z,78.31
2019-04-04T14:31:18.155Z,74.93
2019-04-04T14:32:21.019Z,75.09
2019-04-04T14:33:18.519Z,75.25
2019-04-04T14:34:18.676Z,76.54
2019-04-04T14:35:18.834Z,78.31
2019-04-04T14:36:19.031Z,76.86
2019-04-04T14:37:19.161Z,73.48
2019-04-04T14:38:19.315Z,72.67
2019-04-04T14:39:19.447Z,72.83
2019-04-04T14:40:19.594Z,78.63
2019-04-04T14:41:19.737Z,72.83
2019-04-04T14:42:19.913Z,77.50
2019-04-04T14:43:20.090Z,74.93
2019-04-04T14:44:20.255Z,76.38
2019-04-04T14:45:20.400Z,78.63
2019-04-04T14:46:20.528Z,77.50
2019-04-04T14:47:20.717Z,75.57
2019-04-04T14:48:20.880Z,76.22
2019-04-04T14:49:21.083Z,74.77
2019-04-04T14:50:21.232Z,77.34
2019-04-04T14:51:21.383Z,74.77
2019-04-04T14:52:24.107Z,75.57
2019-04-04T14:53:21.761Z,73.64
2019-04-04T14:54:21.956Z,75.41
2019-04-04T14:55:22.140Z,75.09
2019-04-04T14:56:22.328Z,79.44
2019-04-04T14:57:22.535Z,78.15
2019-04-04T14:58:22.689Z,76.22
2019-04-04T14:59:22.856Z,76.54
2019-04-04T15:00:23.042Z,78.47
2019-04-04T15:01:23.204Z,74.77
2019-04-04T15:02:23.414Z,74.93
2019-04-04T15:03:23.568Z,76.54
2019-04-04T15:04:23.740Z,75.09
2019-04-04T15:05:23.915Z,76.05
2019-04-04T15:06:24.076Z,81.53
2019-04-04T15:07:24.275Z,82.02
2019-04-04T15:08:24.413Z,60.42
2019-04-04T15:09:24.579Z,73.64
2019-04-04T15:10:24.734Z,80.41
2019-04-04T15:11:25.926Z,84.27
2019-04-04T15:12:25.093Z,84.92
2019-04-04T15:13:25.281Z,81.53
2019-04-04T15:14:25.492Z,81.86
2019-04-04T15:15:26.430Z,80.41
2019-04-04T15:16:26.824Z,72.03
2019-04-04T15:17:25.942Z,68.96
2019-04-04T15:18:26.106Z,79.28
2019-04-04T15:19:26.271Z,76.86
2019-04-04T15:20:26.421Z,74.28
2019-04-04T15:21:26.572Z,75.73
2019-04-04T15:22:26.796Z,75.25
2019-04-04T15:23:26.970Z,77.34
2019-04-04T15:24:27.128Z,76.38
2019-04-04T15:25:27.303Z,70.25
2019-04-04T15:26:27.506Z,76.86
2019-04-04T15:27:27.702Z,77.83
2019-04-04T15:28:27.907Z,78.31
2019-04-04T15:29:28.097Z,84.92
2019-04-04T15:30:28.311Z,87.01
2019-04-04T15:31:28.487Z,82.34
2019-04-04T15:32:28.647Z,83.79
2019-04-04T15:33:28.851Z,81.05
2019-04-04T15:34:29.014Z,79.60
2019-04-04T15:35:29.224Z,79.12
2019-04-04T15:36:29.424Z,82.34
2019-04-04T15:37:30.613Z,72.35
2019-04-04T15:38:29.776Z,63.81
2019-04-04T15:39:29.964Z,84.27
2019-04-04T15:40:30.197Z,82.18
2019-04-04T15:41:36.689Z,63.16
2019-04-04T15:42:32.513Z,72.83
2019-04-04T15:43:30.654Z,73.96
2019-04-04T15:44:30.834Z,83.63
2019-04-04T15:45:31.050Z,82.34
2019-04-04T15:46:31.252Z,80.41
2019-04-04T15:47:31.508Z,86.53
2019-04-04T15:48:31.578Z,82.34
2019-04-04T15:49:31.757Z,80.41
2019-04-04T15:50:31.939Z,82.34
2019-04-04T15:51:32.159Z,85.72
2019-04-04T15:52:32.314Z,85.56
2019-04-04T15:53:32.492Z,78.47
2019-04-04T15:54:32.651Z,81.05
2019-04-04T15:55:32.810Z,79.44
2019-04-04T15:56:33.003Z,66.06
2019-04-04T15:57:33.198Z,75.09
2019-04-04T15:58:33.370Z,70.90
2019-04-04T15:59:33.610Z,74.60
2019-04-04T16:00:33.774Z,72.83
2019-04-04T16:01:33.976Z,81.05
2019-04-04T16:02:34.142Z,80.57
2019-04-04T16:03:34.338Z,81.21
2019-04-04T16:04:34.517Z,80.57
2019-04-04T16:05:34.695Z,80.57
2019-04-04T16:06:34.916Z,65.10
2019-04-04T16:07:35.101Z,72.19
2019-04-04T16:08:35.308Z,77.18
2019-04-04T16:09:36.002Z,72.51
2019-04-04T16:10:35.643Z,72.51
2019-04-04T16:11:48.490Z,74.77
2019-04-04T16:12:36.992Z,76.70
2019-04-04T16:13:36.135Z,73.64
2019-04-04T16:14:36.369Z,70.58
2019-04-04T16:15:36.536Z,72.19
2019-04-04T16:16:36.710Z,73.32
2019-04-04T16:17:37.905Z,82.82
2019-04-04T16:18:37.031Z,83.63
2019-04-04T16:19:37.247Z,83.47
2019-04-04T16:20:37.407Z,83.14
2019-04-04T16:21:37.582Z,81.21
2019-04-04T16:22:37.765Z,81.05
2019-04-04T16:23:37.923Z,80.57
2019-04-04T16:24:38.146Z,80.89
2019-04-04T16:25:38.334Z,73.96
2019-04-04T16:26:38.517Z,77.50
2019-04-04T16:27:38.693Z,77.67
2019-04-04T16:28:38.870Z,76.54
2019-04-04T16:29:39.058Z,73.15
2019-04-04T16:30:39.215Z,74.28
2019-04-04T16:31:39.363Z,78.63
2019-04-04T16:32:39.524Z,83.14
2019-04-04T16:33:40.686Z,77.83
2019-04-04T16:34:39.951Z,79.28
2019-04-04T16:35:40.148Z,87.82
2019-04-04T16:36:40.294Z,83.63
2019-04-04T16:37:40.455Z,84.11
2019-04-04T16:38:40.599Z,80.41
2019-04-04T16:39:40.788Z,80.24
2019-04-04T16:40:40.936Z,81.37
2019-04-04T16:41:41.112Z,81.37
2019-04-04T16:42:41.286Z,80.41
2019-04-04T16:43:41.449Z,78.15
2019-04-04T16:44:41.618Z,82.34
2019-04-04T16:45:41.797Z,83.63
2019-04-04T16:46:41.931Z,84.76
2019-04-04T16:47:42.084Z,79.92
2019-04-04T16:48:42.236Z,84.11
2019-04-04T16:49:42.397Z,86.85
2019-04-04T16:50:42.540Z,71.70
2019-04-04T16:51:42.688Z,71.22
2019-04-04T16:52:42.834Z,74.60
2019-04-04T16:53:43.007Z,75.41
2019-04-04T16:54:43.146Z,85.56
2019-04-04T16:55:43.290Z,74.12
2019-04-04T16:56:43.456Z,77.83
2019-04-04T16:57:43.780Z,71.06
2019-04-04T16:58:43.807Z,76.70
2019-04-04T16:59:43.945Z,87.66
2019-04-04T17:00:45.118Z,78.31
2019-04-04T17:01:44.223Z,77.99
2019-04-04T17:02:44.346Z,72.83
2019-04-04T17:03:44.517Z,77.83
2019-04-04T17:04:44.704Z,72.83
2019-04-04T17:05:44.874Z,75.89
2019-04-04T17:06:45.092Z,83.95
2019-04-04T17:07:45.285Z,79.60
2019-04-04T17:08:45.459Z,72.03
2019-04-04T17:09:45.647Z,74.28
2019-04-04T17:10:45.844Z,74.77
2019-04-04T17:11:46.024Z,79.28
2019-04-04T17:12:46.191Z,77.67
2019-04-04T17:13:46.391Z,76.86
2019-04-04T17:14:46.595Z,73.32
2019-04-04T17:15:46.766Z,74.28
2019-04-04T17:16:46.965Z,72.19
2019-04-04T17:17:47.150Z,77.83
2019-04-04T17:18:47.342Z,73.15
2019-04-04T17:19:47.548Z,75.89
2019-04-04T17:20:47.758Z,71.54
2019-04-04T17:21:47.957Z,67.35
2019-04-04T17:22:48.185Z,72.99
2019-04-04T17:23:48.360Z,76.22
2019-04-04T17:24:48.555Z,70.58
2019-04-04T17:25:48.766Z,71.54
2019-04-04T17:26:48.902Z,71.06
2019-04-04T17:27:49.045Z,70.74
2019-04-04T17:28:49.194Z,73.48
2019-04-04T17:29:49.752Z,71.87
2019-04-04T17:30:49.621Z,73.96
2019-04-04T17:31:49.796Z,71.54
2019-04-04T17:32:50.330Z,76.05
2019-04-04T17:33:50.403Z,74.93
2019-04-04T17:34:50.330Z,77.18
2019-04-04T17:35:51.001Z,71.87
2019-04-04T17:36:50.671Z,73.80
2019-04-04T17:37:50.852Z,74.77
2019-04-04T17:38:51.049Z,75.09
2019-04-04T17:39:51.210Z,74.93
2019-04-04T17:40:51.379Z,76.38
2019-04-04T17:41:52.047Z,74.44
2019-04-04T17:42:52.128Z,73.15
2019-04-04T17:43:51.922Z,74.60
2019-04-04T17:44:52.574Z,73.64
2019-04-04T17:45:52.146Z,72.83
2019-04-04T17:46:52.727Z,75.09
2019-04-04T17:47:53.560Z,76.38
2019-04-04T17:48:52.791Z,75.89
2019-04-04T17:49:52.853Z,75.73
2019-04-04T17:50:53.048Z,77.83
2019-04-04T17:51:53.622Z,73.64
2019-04-04T17:52:53.916Z,76.22
2019-04-04T17:53:53.742Z,76.54
2019-04-04T17:54:54.752Z,77.18
2019-04-04T17:55:55.536Z,74.60
2019-04-04T17:56:55.070Z,73.48
2019-04-04T17:57:54.412Z,75.41
2019-04-04T17:58:54.405Z,77.83
2019-04-04T17:59:54.573Z,78.31
2019-04-04T18:00:54.752Z,70.42
2019-04-04T18:01:54.965Z,71.06
2019-04-04T18:02:55.172Z,75.57
2019-04-04T18:03:55.333Z,76.38
2019-04-04T18:04:55.536Z,72.83
2019-04-04T18:05:55.732Z,73.15
2019-04-04T18:06:55.920Z,75.09
2019-04-04T18:07:56.116Z,76.05
2019-04-04T18:08:56.266Z,74.77
2019-04-04T18:09:56.477Z,75.73
2019-04-04T18:10:56.652Z,75.41
2019-04-04T18:11:56.793Z,74.28
2019-04-04T18:12:56.955Z,71.54
2019-04-04T18:13:57.112Z,74.77
2019-04-04T18:14:57.303Z,76.38
2019-04-04T18:15:57.451Z,73.32
2019-04-04T18:16:57.609Z,84.76
2019-04-04T18:17:57.785Z,83.63
2019-04-04T18:18:57.955Z,82.02
2019-04-04T18:19:58.103Z,85.72
2019-04-04T18:20:58.280Z,84.11
2019-04-04T18:21:58.484Z,96.04
2019-04-04T18:22:58.642Z,72.03
2019-04-04T18:23:58.808Z,71.06
2019-04-04T18:24:59.016Z,68.00
2019-04-04T18:25:59.215Z,73.15
2019-04-04T18:26:59.375Z,70.74
2019-04-04T18:27:59.650Z,74.28
2019-04-04T18:28:59.807Z,88.46
2019-04-04T18:30:00.173Z,87.33
2019-04-04T18:31:00.254Z,78.63
2019-04-04T18:32:00.495Z,73.64
2019-04-04T18:33:00.667Z,72.35
2019-04-04T18:34:00.934Z,57.04
2019-04-04T18:35:01.346Z,72.83
2019-04-04T18:36:01.345Z,58.17
2019-04-04T18:37:01.435Z,59.78
2019-04-04T18:38:01.626Z,70.09
2019-04-04T18:39:01.839Z,52.85
2019-04-04T18:40:02.034Z,62.52
2019-04-04T18:41:02.256Z,57.52
2019-04-04T18:42:02.435Z,52.21
2019-04-04T18:43:02.624Z,49.79
2019-04-04T18:44:02.808Z,49.31
2019-04-04T18:45:03.001Z,77.18
2019-04-04T18:46:03.203Z,49.47
2019-04-04T18:47:03.396Z,48.66
2019-04-04T18:48:03.589Z,50.11
2019-04-04T18:49:03.760Z,73.96
2019-04-04T18:50:03.932Z,68.32
2019-04-04T18:51:04.103Z,73.32
2019-04-04T18:52:04.272Z,72.99
2019-04-04T18:53:04.524Z,65.26
2019-04-04T18:54:04.683Z,55.59
2019-04-04T18:55:04.824Z,76.05
2019-04-04T18:56:05.970Z,58.01
2019-04-04T18:57:05.210Z,71.54
2019-04-04T18:58:05.372Z,57.36
2019-04-04T18:59:05.521Z,72.99
2019-04-04T19:00:05.640Z,75.09
2019-04-04T19:01:05.786Z,48.02
2019-04-04T19:02:05.996Z,48.18
2019-04-04T19:03:06.109Z,68.96
2019-04-04T19:04:06.385Z,78.96
2019-04-04T19:05:06.543Z,47.86
2019-04-04T19:06:06.716Z,50.92
2019-04-04T19:07:06.886Z,46.73
2019-04-04T19:08:07.033Z,51.08
2019-04-04T19:09:14.813Z,52.85
2019-04-04T19:10:09.384Z,73.96
2019-04-04T19:11:07.591Z,75.57
2019-04-04T19:12:07.739Z,49.95
2019-04-04T19:13:07.918Z,78.79
2019-04-04T19:14:08.134Z,52.53
2019-04-04T19:15:08.325Z,70.58
2019-04-04T19:16:08.519Z,72.67
2019-04-04T19:17:08.675Z,56.88
2019-04-04T19:18:08.793Z,73.96
2019-04-04T19:19:08.939Z,71.54
2019-04-04T19:20:10.212Z,58.81
2019-04-04T19:21:10.308Z,70.42
2019-04-04T19:22:09.543Z,53.50
2019-04-04T19:23:09.692Z,63.33
2019-04-04T19:24:09.836Z,77.83
2019-04-04T19:25:09.991Z,74.12
2019-04-04T19:26:10.163Z,45.92
2019-04-04T19:27:10.353Z,45.12
2019-04-04T19:28:10.558Z,44.96
2019-04-04T19:29:11.769Z,47.37
2019-04-04T19:30:10.904Z,45.76
2019-04-04T19:31:11.118Z,47.37
2019-04-04T19:32:11.289Z,59.94
2019-04-04T19:33:11.487Z,72.51
2019-04-04T19:34:11.726Z,49.15
2019-04-04T19:35:11.934Z,46.73
2019-04-04T19:36:12.148Z,51.24
2019-04-04T19:37:12.362Z,49.79
2019-04-04T19:38:12.580Z,46.41
2019-04-04T19:39:12.790Z,73.32
2019-04-04T19:40:12.990Z,48.34
2019-04-04T19:41:13.233Z,52.37
2019-04-04T19:42:13.429Z,55.27
2019-04-04T19:43:18.371Z,75.73
2019-04-04T19:44:14.833Z,50.43
2019-04-04T19:45:14.012Z,73.15
2019-04-04T19:46:14.241Z,74.44
2019-04-04T19:47:14.455Z,45.92
2019-04-04T19:48:14.653Z,76.38
2019-04-04T19:49:14.856Z,63.16
2019-04-04T19:50:15.077Z,74.60
2019-04-04T19:51:15.294Z,44.79
2019-04-04T19:52:15.516Z,48.18
2019-04-04T19:53:15.725Z,51.24
2019-04-04T19:54:15.902Z,52.85
2019-04-04T19:55:16.097Z,61.39
2019-04-04T19:56:16.275Z,58.33
2019-04-04T19:57:17.033Z,49.63
2019-04-04T19:58:17.646Z,71.38
2019-04-04T19:59:16.795Z,49.15
2019-04-04T20:00:16.998Z,69.77
2019-04-04T20:01:17.173Z,51.72
2019-04-04T20:02:18.400Z,69.61
2019-04-04T20:03:17.629Z,54.46
2019-04-04T20:04:17.814Z,53.66
2019-04-04T20:05:17.998Z,71.87
2019-04-04T20:06:18.166Z,47.37
2019-04-04T20:07:18.356Z,73.64
2019-04-04T20:08:18.567Z,69.77
2019-04-04T20:09:18.753Z,52.69
2019-04-04T20:10:18.932Z,48.50
2019-04-04T20:11:19.114Z,51.24
2019-04-04T20:12:19.290Z,76.70
2019-04-04T20:13:30.388Z,56.07
2019-04-04T20:14:21.616Z,48.50
2019-04-04T20:15:19.861Z,48.66
2019-04-04T20:16:20.075Z,51.72
2019-04-04T20:17:20.397Z,45.12
2019-04-04T20:18:20.413Z,74.12
2019-04-04T20:19:20.562Z,51.40
2019-04-04T20:20:20.751Z,72.35
2019-04-04T20:21:20.913Z,43.99
2019-04-04T20:22:21.059Z,45.92
2019-04-04T20:23:21.244Z,46.89
2019-04-04T20:24:21.433Z,75.57
2019-04-04T20:25:21.635Z,45.44
2019-04-04T20:26:21.814Z,70.74
2019-04-04T20:27:22.031Z,77.18
2019-04-04T20:28:22.239Z,44.96
2019-04-04T20:29:22.448Z,47.37
2019-04-04T20:30:22.679Z,67.35
2019-04-04T20:31:22.864Z,47.37
2019-04-04T20:32:23.108Z,44.96
2019-04-04T20:33:23.369Z,71.54
2019-04-04T20:34:24.482Z,45.28
2019-04-04T20:35:23.650Z,46.25
2019-04-04T20:36:24.176Z,62.20
2019-04-04T20:37:24.066Z,52.37
2019-04-04T20:38:24.226Z,72.83
2019-04-04T20:39:24.311Z,44.96
2019-04-04T20:40:24.569Z,47.53
2019-04-04T20:41:24.702Z,46.57
2019-04-04T20:42:24.838Z,51.72
2019-04-04T20:43:25.026Z,59.46
2019-04-04T20:44:25.259Z,70.09
2019-04-04T20:45:25.355Z,44.31
2019-04-04T20:46:25.554Z,42.70
2019-04-04T20:47:25.743Z,41.89
2019-04-04T20:48:25.915Z,42.54
2019-04-04T20:49:26.168Z,44.31
2019-04-04T20:50:26.281Z,47.86
2019-04-04T20:51:26.507Z,44.63
2019-04-04T20:52:26.715Z,44.31
2019-04-04T20:53:26.936Z,47.70
2019-04-04T20:54:27.152Z,45.12
2019-04-04T20:55:27.381Z,47.21
2019-04-04T20:56:27.561Z,41.73
2019-04-04T20:57:28.709Z,47.70
2019-04-04T20:58:31.145Z,49.31
2019-04-04T20:59:28.442Z,72.83
2019-04-04T21:00:28.301Z,44.96
2019-04-04T21:01:28.510Z,45.12
2019-04-04T21:02:28.680Z,57.85
2019-04-04T21:03:28.879Z,48.82
2019-04-04T21:04:29.059Z,57.69
2019-04-04T21:05:29.246Z,68.00
2019-04-04T21:06:29.493Z,71.70
2019-04-04T21:07:29.584Z,57.69
2019-04-04T21:08:29.781Z,71.22
2019-04-04T21:09:29.988Z,60.26
2019-04-04T21:10:30.245Z,50.76
2019-04-04T21:11:30.310Z,52.21
2019-04-04T21:12:30.489Z,54.79
2019-04-04T21:13:30.669Z,58.81
2019-04-04T21:14:30.844Z,60.75
2019-04-04T21:15:31.034Z,67.35
2019-04-04T21:16:31.217Z,72.51
2019-04-04T21:17:31.420Z,68.48
2019-04-04T21:18:31.601Z,62.84
2019-04-04T21:19:31.818Z,62.68
2019-04-04T21:20:31.994Z,66.55
2019-04-04T21:21:32.150Z,74.28
2019-04-04T21:22:33.339Z,75.89
2019-04-04T21:23:32.467Z,68.00
2019-04-04T21:24:32.645Z,71.87
2019-04-04T21:25:32.844Z,66.71
2019-04-04T21:26:33.026Z,70.58
2019-04-04T21:27:33.296Z,68.16
2019-04-04T21:28:33.359Z,86.21
2019-04-04T21:29:33.526Z,73.48
2019-04-04T21:30:33.700Z,73.80
2019-04-04T21:31:33.855Z,78.63
2019-04-04T21:32:34.049Z,71.38
2019-04-04T21:33:34.213Z,76.38
2019-04-04T21:34:34.408Z,78.31
2019-04-04T21:35:34.575Z,73.15
2019-04-04T21:36:34.755Z,74.44
2019-04-04T21:37:34.913Z,66.87
2019-04-04T21:38:35.167Z,61.23
2019-04-04T21:39:35.343Z,68.16
2019-04-04T21:40:35.507Z,64.29
2019-04-04T21:41:35.664Z,66.55
2019-04-04T21:42:35.852Z,66.06
2019-04-04T21:43:36.086Z,57.36
2019-04-04T21:44:36.301Z,57.85
2019-04-04T21:45:36.460Z,59.14
2019-04-04T21:46:36.625Z,59.94
2019-04-04T21:47:37.814Z,58.81
2019-04-04T21:48:36.998Z,66.87
2019-04-04T21:49:37.189Z,53.17
2019-04-04T21:50:38.357Z,57.85
2019-04-04T21:51:38.560Z,51.56
2019-04-04T21:52:37.719Z,55.75
2019-04-04T21:53:37.918Z,52.37
2019-04-04T21:54:38.104Z,59.46
2019-04-04T21:55:38.307Z,57.36
2019-04-04T21:56:38.518Z,52.69
2019-04-04T21:57:38.740Z,56.72
2019-04-04T21:58:38.946Z,54.46
2019-04-04T21:59:39.151Z,56.40
2019-04-04T22:00:39.360Z,49.31
2019-04-04T22:01:39.454Z,57.04
2019-04-04T22:02:39.692Z,53.82
2019-04-04T22:03:39.877Z,51.88
2019-04-04T22:04:40.074Z,46.57
2019-04-04T22:05:40.337Z,56.88
2019-04-04T22:06:40.431Z,49.95
2019-04-04T22:07:40.669Z,59.78
2019-04-04T22:08:40.885Z,59.78
2019-04-04T22:09:41.095Z,53.50
2019-04-04T22:10:41.350Z,56.88
2019-04-04T22:11:41.546Z,59.94
2019-04-04T22:12:41.768Z,70.09
2019-04-04T22:13:41.975Z,71.06
2019-04-04T22:14:42.183Z,59.94
2019-04-04T22:15:42.396Z,65.58
2019-04-04T22:16:42.618Z,60.42
2019-04-04T22:17:42.821Z,58.97
2019-04-04T22:18:43.011Z,58.33
2019-04-04T22:19:43.239Z,52.85
2019-04-04T22:20:43.356Z,55.11
2019-04-04T22:21:43.561Z,52.37
2019-04-04T22:22:43.780Z,51.72